Time;durP1;ratioP1;P1;durP2;ratioP2;P2;SDS_P1;SDS_P2;PMS_P1;PMS_P2;Temp;Humidity;BMP_temperature;BMP_pressure;BME280_temperature;BME280_humidity;BME280_pressure;Samples;Min_cycle;Max_cycle;Signal;HPM_P1;HPM_P2
2023/03/09 00:01:31;;;;;;;26.23;18.80;;;3.50;99.90;;;;;;5083240;28;20021;-82
2023/03/09 00:03:59;;;;;;;27.20;19.75;;;3.30;99.90;;;;;;5083125;28;20029;-82
2023/03/09 00:06:25;;;;;;;27.20;18.88;;;3.20;99.90;;;;;;5083617;28;20033;-82
2023/03/09 00:08:53;;;;;;;24.75;19.05;;;3.30;99.90;;;;;;5084375;28;20020;-82
2023/03/09 00:11:22;;;;;;;26.17;19.75;;;3.30;99.90;;;;;;5083842;28;20366;-82
2023/03/09 00:13:49;;;;;;;28.95;19.60;;;3.20;99.90;;;;;;5082894;28;20029;-82
2023/03/09 00:16:33;;;;;;;27.67;19.65;;;3.00;99.90;;;;;;5082765;28;20024;-83
2023/03/09 00:18:59;;;;;;;28.73;20.20;;;2.80;99.90;;;;;;5083293;28;20029;-83
2023/03/09 00:21:36;;;;;;;29.23;19.98;;;2.70;99.90;;;;;;5082830;28;20039;-83
2023/03/09 00:24:16;;;;;;;29.08;19.60;;;2.60;99.90;;;;;;5083084;28;20027;-83
2023/03/09 00:26:46;;;;;;;28.98;20.00;;;2.70;99.90;;;;;;5087233;28;20070;-84
2023/03/09 00:29:13;;;;;;;32.70;22.00;;;2.80;99.90;;;;;;5086611;28;20095;-83
2023/03/09 00:31:57;;;;;;;32.80;22.30;;;2.90;99.90;;;;;;5085569;28;20017;-84
2023/03/09 00:34:30;;;;;;;31.95;21.30;;;2.90;99.90;;;;;;5085924;28;20048;-84
2023/03/09 00:36:56;;;;;;;;;;;2.90;99.90;;;;;;5086152;28;20058;-83
2023/03/09 00:39:26;;;;;;;33.92;22.42;;;3.10;99.90;;;;;;5101040;28;19935;-84
2023/03/09 00:41:55;;;;;;;33.25;21.17;;;2.90;99.90;;;;;;5065673;28;20028;-85
2023/03/09 00:44:21;;;;;;;30.80;21.38;;;2.90;99.90;;;;;;5083855;28;20028;-83
2023/03/09 00:46:49;;;;;;;33.55;22.05;;;2.90;99.90;;;;;;5063807;28;20101;-84
2023/03/09 00:49:15;;;;;;;31.25;21.55;;;3.00;99.90;;;;;;5080430;28;20029;-84
2023/03/09 00:51:53;;;;;;;31.88;22.10;;;3.00;99.90;;;;;;5063417;28;20420;-84
2023/03/09 00:54:21;;;;;;;33.88;22.35;;;3.00;99.90;;;;;;5063955;28;20096;-85
2023/03/09 00:57:02;;;;;;;34.80;22.50;;;2.90;99.90;;;;;;5047548;28;20086;-85
2023/03/09 00:59:32;;;;;;;34.67;22.20;;;2.70;99.90;;;;;;5047783;28;20037;-83
2023/03/09 01:02:00;;;;;;;32.75;21.45;;;2.70;99.90;;;;;;5065701;28;20028;-84
2023/03/09 01:04:25;;;;;;;37.83;23.50;;;2.60;99.90;;;;;;5065838;28;20029;-83
2023/03/09 01:06:55;;;;;;;35.58;22.88;;;2.70;99.90;;;;;;5047187;28;20047;-83
2023/03/09 01:09:26;;;;;;;34.72;21.75;;;2.70;99.90;;;;;;5067368;28;20055;-82
2023/03/09 01:11:52;;;;;;;32.38;19.90;;;2.70;99.90;;;;;;5085732;28;20020;-82
2023/03/09 01:14:18;;;;;;;34.20;22.23;;;2.60;99.90;;;;;;5066384;28;20025;-83
2023/03/09 01:16:46;;;;;;;35.08;21.63;;;2.80;99.90;;;;;;5083952;28;20028;-82
2023/03/09 01:19:14;;;;;;;34.25;21.50;;;2.70;99.90;;;;;;5065727;28;20043;-82
2023/03/09 01:21:40;;;;;;;32.60;21.88;;;2.70;99.90;;;;;;5049419;28;20443;-83
2023/03/09 01:24:06;;;;;;;32.13;20.42;;;2.80;99.90;;;;;;5084050;28;20032;-82
2023/03/09 01:26:32;;;;;;;34.53;22.25;;;2.80;99.90;;;;;;5065406;28;20033;-83
2023/03/09 01:28:58;;;;;;;33.17;21.27;;;2.80;99.90;;;;;;5049723;28;20030;-82
2023/03/09 01:31:24;;;;;;;31.70;21.45;;;2.80;99.90;;;;;;5050179;28;20123;-83
2023/03/09 01:34:00;;;;;;;;;;;;;;;;;;;;;
2023/03/09 01:36:26;;;;;;;31.73;21.50;;;3.00;99.90;;;;;;5084088;28;20091;-82
2023/03/09 01:38:54;;;;;;;32.17;20.70;;;3.20;99.90;;;;;;5083065;28;20048;-82
2023/03/09 01:41:22;;;;;;;30.27;20.83;;;3.20;99.90;;;;;;5083393;28;20032;-82
2023/03/09 01:43:57;;;;;;;32.15;20.95;;;3.20;99.90;;;;;;5049209;28;20029;-82
2023/03/09 01:46:25;;;;;;;35.30;22.23;;;3.20;99.90;;;;;;5050476;28;20055;-82
2023/03/09 01:49:30;;;;;;;30.98;20.17;;;3.00;99.90;;;;;;5067334;28;20031;-82
2023/03/09 01:51:55;;;;;;;34.15;21.23;;;2.70;99.90;;;;;;5049917;28;20036;-82
2023/03/09 01:54:38;;;;;;;35.70;21.80;;;2.70;99.90;;;;;;5066554;28;20028;-82
2023/03/09 01:57:13;;;;;;;32.80;21.25;;;2.70;99.90;;;;;;5065164;28;20042;-82
2023/03/09 01:59:41;;;;;;;32.22;21.10;;;2.60;99.90;;;;;;5083899;28;20044;-82
2023/03/09 02:02:08;;;;;;;40.17;21.70;;;2.70;99.90;;;;;;5065092;28;20032;-83
2023/03/09 02:04:42;;;;;;;33.45;21.77;;;2.70;99.90;;;;;;5049218;28;20032;-84
2023/03/09 02:07:08;;;;;;;32.13;19.63;;;2.80;99.90;;;;;;5047781;28;20032;-83
2023/03/09 02:09:40;;;;;;;32.97;20.55;;;2.80;99.90;;;;;;5048037;28;20497;-83
2023/03/09 02:12:07;;;;;;;32.50;21.00;;;3.00;99.90;;;;;;5048054;28;20079;-83
2023/03/09 02:14:36;;;;;;;36.03;22.90;;;3.10;99.90;;;;;;5049286;28;20031;-83
2023/03/09 02:17:08;;;;;;;33.03;21.95;;;3.00;99.90;;;;;;5031962;28;20044;-84
2023/03/09 02:19:43;;;;;;;35.28;23.05;;;2.90;99.90;;;;;;5049159;28;20090;-85
2023/03/09 02:22:17;;;;;;;34.03;21.00;;;3.00;99.90;;;;;;5049950;28;20048;-84
2023/03/09 02:25:15;;;;;;;;;;;;;;;;;;;;;
2023/03/09 02:27:45;;;;;;;33.85;23.27;;;3.20;99.90;;;;;;5061634;28;20565;-83
2023/03/09 02:30:13;;;;;;;32.30;21.08;;;3.10;99.90;;;;;;5056953;28;20517;-84
2023/03/09 02:32:39;;;;;;;37.35;22.52;;;3.10;99.90;;;;;;5038519;28;20029;-82
2023/03/09 02:35:09;;;;;;;36.13;22.88;;;3.10;99.90;;;;;;5038827;28;20103;-83
2023/03/09 02:37:38;;;;;;;36.97;23.05;;;3.00;99.90;;;;;;5039004;28;20043;-82
2023/03/09 02:40:15;;;;;;;39.33;24.27;;;2.80;99.90;;;;;;5056133;28;20068;-83
2023/03/09 02:42:43;;;;;;;38.10;23.33;;;2.80;99.90;;;;;;5056653;28;20036;-82
2023/03/09 02:45:12;;;;;;;38.22;23.80;;;2.80;99.90;;;;;;5056466;28;20079;-83
2023/03/09 02:47:38;;;;;;;38.75;24.48;;;2.80;99.90;;;;;;5038956;28;20052;-83
2023/03/09 02:50:09;;;;;;;36.42;23.20;;;2.90;99.90;;;;;;5022410;28;20107;-83
2023/03/09 02:52:36;;;;;;;38.22;24.55;;;3.00;99.90;;;;;;5056197;28;20140;-82
2023/03/09 02:55:02;;;;;;;36.20;22.48;;;3.10;99.90;;;;;;5038691;28;20033;-82
2023/03/09 02:57:28;;;;;;;36.47;24.10;;;3.10;99.90;;;;;;5038521;28;20127;-83
2023/03/09 02:59:54;;;;;;;37.70;23.63;;;3.20;99.90;;;;;;5038801;28;20136;-83
2023/03/09 03:02:20;;;;;;;34.20;23.55;;;3.20;99.90;;;;;;5038971;28;20385;-83
2023/03/09 03:04:45;;;;;;;34.90;22.45;;;3.30;99.90;;;;;;5038254;28;20445;-83
2023/03/09 03:07:11;;;;;;;36.30;21.83;;;3.30;99.90;;;;;;5022044;28;20397;-82
2023/03/09 03:09:37;;;;;;;35.00;23.08;;;3.10;99.90;;;;;;5038898;28;20064;-82
2023/03/09 03:12:02;;;;;;;37.63;22.83;;;3.00;99.90;;;;;;5055762;28;20021;-82
2023/03/09 03:14:28;;;;;;;33.13;21.33;;;3.00;99.90;;;;;;5021913;28;20029;-82
2023/03/09 03:16:54;;;;;;;38.28;23.17;;;3.00;99.90;;;;;;5038079;28;20041;-83
2023/03/09 03:19:21;;;;;;;36.05;22.60;;;2.80;99.90;;;;;;5036345;28;20079;-82
2023/03/09 03:21:48;;;;;;;34.28;21.95;;;2.70;99.90;;;;;;5021508;28;20040;-83
2023/03/09 03:24:14;;;;;;;31.73;21.00;;;2.90;99.90;;;;;;5038285;28;20385;-82
2023/03/09 03:26:40;;;;;;;33.83;21.35;;;3.00;99.90;;;;;;5037762;28;20488;-83
2023/03/09 03:29:06;;;;;;;31.67;20.42;;;3.10;99.90;;;;;;5037777;28;20029;-81
2023/03/09 03:31:32;;;;;;;32.88;20.88;;;3.10;99.90;;;;;;5021646;28;20039;-81
2023/03/09 03:33:58;;;;;;;31.00;20.73;;;3.20;99.90;;;;;;5045451;28;20506;-82
2023/03/09 03:36:24;;;;;;;32.15;20.75;;;3.40;99.90;;;;;;5037538;28;20087;-82
2023/03/09 03:38:53;;;;;;;30.98;20.00;;;3.50;99.90;;;;;;5058597;28;20539;-81
2023/03/09 03:41:19;;;;;;;30.58;19.52;;;3.50;99.90;;;;;;5074263;28;20085;-81
2023/03/09 03:43:44;;;;;;;28.05;18.88;;;3.50;99.90;;;;;;5075383;28;20489;-80
2023/03/09 03:46:10;;;;;;;30.23;19.77;;;3.50;99.90;;;;;;5074180;28;20028;-79
2023/03/09 03:48:37;;;;;;;30.80;19.98;;;3.50;99.90;;;;;;5073947;28;20087;-72
2023/03/09 03:51:05;;;;;;;30.23;19.92;;;3.50;99.90;;;;;;5074472;28;20041;-73
2023/03/09 03:53:31;;;;;;;28.95;19.17;;;3.50;99.90;;;;;;5076637;28;20021;-73
2023/03/09 03:55:56;;;;;;;30.90;21.13;;;3.40;99.90;;;;;;5075263;28;20508;-73
2023/03/09 03:58:22;;;;;;;32.90;21.38;;;3.30;99.90;;;;;;5074916;28;20119;-73
2023/03/09 04:00:48;;;;;;;30.55;19.73;;;3.20;99.90;;;;;;5075835;28;20029;-73
2023/03/09 04:03:13;;;;;;;31.45;20.60;;;3.20;99.90;;;;;;5074014;28;20051;-73
2023/03/09 04:05:39;;;;;;;32.85;20.67;;;3.20;99.90;;;;;;5073843;28;20041;-73
2023/03/09 04:08:04;;;;;;;30.48;20.27;;;3.20;99.90;;;;;;5075253;28;20166;-73
2023/03/09 04:10:30;;;;;;;30.70;20.25;;;3.20;99.90;;;;;;5074563;28;20029;-73
2023/03/09 04:12:57;;;;;;;28.48;19.27;;;3.40;99.90;;;;;;5074838;28;20029;-73
2023/03/09 04:15:22;;;;;;;33.70;21.30;;;3.40;99.90;;;;;;5075176;28;20032;-73
2023/03/09 04:17:48;;;;;;;32.55;21.75;;;3.50;99.90;;;;;;5074855;28;20485;-74
2023/03/09 04:20:14;;;;;;;32.75;20.95;;;3.50;99.90;;;;;;5073415;28;20074;-73
2023/03/09 04:22:41;;;;;;;33.30;22.48;;;3.50;99.90;;;;;;5074883;28;20032;-73
2023/03/09 04:25:07;;;;;;;31.58;21.10;;;3.40;99.90;;;;;;5073492;28;20400;-79
2023/03/09 04:27:32;;;;;;;34.47;22.92;;;3.40;99.90;;;;;;5073738;28;20041;-73
2023/03/09 04:29:58;;;;;;;33.30;21.90;;;3.40;99.90;;;;;;5073826;28;20488;-74
2023/03/09 04:32:24;;;;;;;34.90;22.73;;;3.20;99.90;;;;;;5074886;28;20526;-75
2023/03/09 04:34:49;;;;;;;36.75;22.63;;;3.20;99.90;;;;;;5073453;28;20436;-74
2023/03/09 04:37:15;;;;;;;35.55;22.77;;;3.30;99.90;;;;;;5074095;28;20495;-73
2023/03/09 04:39:41;;;;;;;35.10;22.65;;;3.40;99.90;;;;;;5074344;28;20523;-73
2023/03/09 04:42:06;;;;;;;32.45;22.13;;;3.30;99.90;;;;;;5074214;28;20381;-73
2023/03/09 04:44:32;;;;;;;38.70;24.15;;;3.30;99.90;;;;;;5073457;28;20035;-73
2023/03/09 04:46:58;;;;;;;31.38;20.20;;;3.40;99.90;;;;;;5073874;28;20106;-73
2023/03/09 04:49:24;;;;;;;34.92;22.38;;;3.50;99.90;;;;;;5073764;28;20036;-73
2023/03/09 04:51:49;;;;;;;35.45;22.65;;;3.60;99.90;;;;;;5072446;28;20056;-74
2023/03/09 04:54:15;;;;;;;33.78;22.15;;;3.70;99.90;;;;;;5072511;28;20476;-73
2023/03/09 04:56:41;;;;;;;36.58;23.67;;;3.80;99.90;;;;;;5073151;28;20483;-73
2023/03/09 04:59:06;;;;;;;35.08;23.10;;;3.80;99.90;;;;;;5074445;28;20043;-73
2023/03/09 05:01:32;;;;;;;34.13;21.60;;;3.80;99.90;;;;;;5073568;28;20043;-73
2023/03/09 05:03:57;;;;;;;33.30;21.40;;;3.80;99.90;;;;;;5074314;28;20037;-73
2023/03/09 05:06:23;;;;;;;38.50;23.40;;;3.90;99.90;;;;;;5072618;28;20384;-73
2023/03/09 05:08:49;;;;;;;34.40;23.27;;;3.90;99.90;;;;;;5072619;28;20043;-73
2023/03/09 05:11:14;;;;;;;36.42;23.58;;;3.90;99.90;;;;;;5073592;28;20485;-74
2023/03/09 05:13:40;;;;;;;34.33;21.63;;;3.80;99.90;;;;;;5072627;28;20131;-72
2023/03/09 05:16:07;;;;;;;34.72;23.55;;;3.80;99.90;;;;;;5073261;28;20060;-72
2023/03/09 05:18:34;;;;;;;37.15;23.25;;;3.80;99.90;;;;;;5073582;28;20036;-72
2023/03/09 05:21:04;;;;;;;36.90;23.10;;;3.60;99.90;;;;;;5073437;28;20081;-73
2023/03/09 05:23:29;;;;;;;36.90;22.67;;;3.60;99.90;;;;;;5073674;28;20067;-73
2023/03/09 05:25:57;;;;;;;38.17;23.50;;;3.60;99.90;;;;;;5073128;28;20036;-73
2023/03/09 05:28:24;;;;;;;38.35;22.73;;;3.60;99.90;;;;;;5073653;28;20095;-73
2023/03/09 05:30:50;;;;;;;37.13;23.30;;;3.50;99.90;;;;;;5073997;28;20035;-73
2023/03/09 05:33:16;;;;;;;37.20;23.15;;;3.40;99.90;;;;;;5055548;28;20064;-74
2023/03/09 05:35:42;;;;;;;39.30;23.73;;;3.50;99.90;;;;;;5055672;28;20472;-73
2023/03/09 05:38:07;;;;;;;36.03;22.98;;;3.50;99.90;;;;;;5055760;28;20044;-73
2023/03/09 05:40:34;;;;;;;39.75;25.27;;;3.40;99.90;;;;;;5055480;28;20100;-73
2023/03/09 05:43:00;;;;;;;38.03;24.33;;;3.30;99.90;;;;;;5072764;28;20056;-72
2023/03/09 05:45:26;;;;;;;38.08;23.10;;;3.30;99.90;;;;;;5073521;28;20032;-74
2023/03/09 05:47:52;;;;;;;35.72;22.17;;;3.30;99.90;;;;;;5073435;28;20378;-73
2023/03/09 05:50:17;;;;;;;37.13;23.85;;;3.50;99.90;;;;;;5073560;28;20102;-73
2023/03/09 05:52:43;;;;;;;36.92;23.55;;;3.60;99.90;;;;;;5055769;28;20037;-73
2023/03/09 05:55:09;;;;;;;37.78;23.77;;;3.70;99.90;;;;;;5072914;28;20067;-73
2023/03/09 05:57:35;;;;;;;35.90;22.92;;;3.70;99.90;;;;;;5073054;28;20032;-73
2023/03/09 06:00:01;;;;;;;37.38;22.85;;;3.60;99.90;;;;;;5073744;28;20044;-73
2023/03/09 06:02:26;;;;;;;37.25;24.13;;;3.50;99.90;;;;;;5073306;28;20103;-73
2023/03/09 06:04:52;;;;;;;36.85;22.98;;;3.40;99.90;;;;;;5073136;28;20025;-73
2023/03/09 06:07:18;;;;;;;37.25;23.77;;;3.30;99.90;;;;;;5055166;28;20029;-73
2023/03/09 06:09:44;;;;;;;36.65;22.67;;;3.20;99.90;;;;;;5054955;28;20067;-74
2023/03/09 06:12:10;;;;;;;37.35;22.70;;;3.30;99.90;;;;;;5055129;28;20068;-73
2023/03/09 06:14:36;;;;;;;36.17;22.70;;;3.20;99.90;;;;;;5054808;28;20029;-73
2023/03/09 06:17:03;;;;;;;33.83;22.58;;;3.20;99.90;;;;;;5072609;28;20035;-73
2023/03/09 06:19:29;;;;;;;30.90;20.67;;;3.20;99.90;;;;;;5054931;28;20075;-74
2023/03/09 06:21:54;;;;;;;33.55;21.13;;;3.20;99.90;;;;;;5054491;28;20083;-76
2023/03/09 06:24:20;;;;;;;30.95;20.05;;;3.20;99.90;;;;;;5055039;28;20025;-74
2023/03/09 06:26:46;;;;;;;28.98;18.92;;;3.40;99.90;;;;;;5055166;28;20040;-74
2023/03/09 06:29:11;;;;;;;31.92;21.50;;;3.50;99.90;;;;;;5055141;28;20115;-74
2023/03/09 06:31:37;;;;;;;31.48;20.92;;;3.70;99.90;;;;;;5055392;28;20033;-74
2023/03/09 06:34:03;;;;;;;27.48;18.15;;;3.60;99.90;;;;;;5072800;28;20488;-73
2023/03/09 06:36:29;;;;;;;31.40;20.55;;;3.60;99.90;;;;;;5054502;28;20047;-74
2023/03/09 06:38:54;;;;;;;27.58;18.83;;;3.70;99.90;;;;;;5072681;28;20036;-75
2023/03/09 06:41:29;;;;;;;28.50;17.33;;;3.80;99.90;;;;;;5054821;28;20032;-75
2023/03/09 06:43:55;;;;;;;28.90;19.63;;;4.10;99.90;;;;;;5072832;28;20462;-74
2023/03/09 06:46:21;;;;;;;31.17;18.10;;;4.20;99.90;;;;;;5054501;28;20036;-75
2023/03/09 06:48:46;;;;;;;27.10;19.05;;;4.30;99.90;;;;;;5054416;28;20108;-76
2023/03/09 06:51:12;;;;;;;26.63;17.83;;;4.20;99.90;;;;;;5072121;28;20036;-75
2023/03/09 06:53:37;;;;;;;28.70;19.10;;;4.30;99.90;;;;;;5057409;28;20038;-75
2023/03/09 06:56:03;;;;;;;27.65;18.98;;;4.20;99.90;;;;;;5042121;28;20055;-82
2023/03/09 06:58:30;;;;;;;26.95;19.42;;;4.20;99.90;;;;;;5042095;28;20043;-76
2023/03/09 07:01:08;;;;;;;32.60;20.92;;;4.20;99.90;;;;;;5058203;28;20031;-75
2023/03/09 07:03:34;;;;;;;26.10;18.52;;;4.20;99.90;;;;;;5076428;28;20059;-77
2023/03/09 07:06:00;;;;;;;28.40;19.02;;;4.30;99.90;;;;;;5041528;28;20033;-76
2023/03/09 07:08:26;;;;;;;30.08;20.38;;;4.40;99.90;;;;;;5076286;28;20027;-75
2023/03/09 07:10:51;;;;;;;29.77;20.17;;;4.30;99.90;;;;;;5076112;28;20372;-76
2023/03/09 07:13:17;;;;;;;29.58;19.52;;;4.20;99.90;;;;;;5024863;28;20035;-78
2023/03/09 07:15:43;;;;;;;28.35;20.17;;;4.10;99.90;;;;;;5057597;28;20033;-75
2023/03/09 07:18:09;;;;;;;29.85;20.42;;;4.00;99.90;;;;;;5058000;28;20119;-76
2023/03/09 07:20:37;;;;;;;29.85;19.55;;;3.90;99.90;;;;;;5075675;28;20465;-77
2023/03/09 07:23:03;;;;;;;27.38;18.58;;;4.00;99.90;;;;;;5075501;28;20087;-76
2023/03/09 07:25:33;;;;;;;28.42;20.10;;;4.10;99.90;;;;;;5057472;28;20024;-75
2023/03/09 07:28:00;;;;;;;30.55;20.55;;;4.20;99.90;;;;;;5075598;28;20024;-76
2023/03/09 07:30:26;;;;;;;32.95;20.55;;;4.20;99.90;;;;;;5057359;28;20029;-75
2023/03/09 07:32:52;;;;;;;31.63;20.85;;;4.10;99.90;;;;;;5041018;28;20453;-74
2023/03/09 07:35:17;;;;;;;25.63;16.90;;;4.00;99.90;;;;;;5072096;28;20143;-73
2023/03/09 07:37:43;;;;;;;31.90;20.45;;;4.00;99.90;;;;;;5058095;28;20068;-77
2023/03/09 07:40:10;;;;;;;30.92;20.92;;;4.20;99.90;;;;;;5074148;28;20039;-74
2023/03/09 07:42:35;;;;;;;32.05;20.70;;;4.20;99.90;;;;;;5075055;28;20028;-76
2023/03/09 07:45:01;;;;;;;30.85;19.35;;;4.10;99.90;;;;;;5075138;28;20028;-77
2023/03/09 07:47:27;;;;;;;31.95;20.58;;;4.10;99.90;;;;;;5074286;28;20028;-76
2023/03/09 07:49:52;;;;;;;32.40;21.10;;;4.20;99.90;;;;;;5074250;28;20029;-76
2023/03/09 07:52:18;;;;;;;33.33;21.73;;;4.00;99.90;;;;;;5075124;28;20028;-79
2023/03/09 07:54:44;;;;;;;34.10;21.60;;;3.90;99.90;;;;;;5075358;28;20040;-74
2023/03/09 07:57:09;;;;;;;34.50;22.98;;;3.90;99.90;;;;;;5073361;28;20036;-73
2023/03/09 07:59:35;;;;;;;33.35;21.17;;;4.00;99.90;;;;;;5057128;28;20025;-73
2023/03/09 08:02:01;;;;;;;32.70;20.50;;;4.00;99.90;;;;;;5072916;28;20457;-73
2023/03/09 08:04:26;;;;;;;28.95;19.15;;;4.10;99.90;;;;;;5072846;28;20024;-74
2023/03/09 08:06:52;;;;;;;33.08;21.67;;;4.30;99.90;;;;;;5056977;28;20039;-74
2023/03/09 08:09:18;;;;;;;33.55;22.42;;;4.30;99.90;;;;;;5056892;28;20460;-74
2023/03/09 08:11:43;;;;;;;33.38;22.35;;;4.30;99.90;;;;;;5073818;28;20518;-74
2023/03/09 08:14:10;;;;;;;32.28;21.15;;;4.40;99.90;;;;;;5075024;28;20441;-74
2023/03/09 08:16:36;;;;;;;33.60;21.15;;;4.40;99.90;;;;;;5074620;28;20108;-74
2023/03/09 08:19:02;;;;;;;34.08;21.08;;;4.50;99.90;;;;;;5073182;28;20071;-74
2023/03/09 08:21:27;;;;;;;33.85;22.45;;;4.50;99.90;;;;;;5056458;28;20499;-74
2023/03/09 08:23:53;;;;;;;34.00;22.08;;;4.50;99.90;;;;;;5073507;28;20138;-74
2023/03/09 08:26:19;;;;;;;30.90;20.08;;;4.40;99.90;;;;;;5056861;28;20040;-74
2023/03/09 08:28:45;;;;;;;32.65;21.42;;;4.40;99.90;;;;;;5074514;28;20048;-73
2023/03/09 08:31:16;;;;;;;35.47;22.90;;;4.50;99.90;;;;;;5074320;28;20050;-73
2023/03/09 08:33:42;;;;;;;34.60;22.52;;;4.40;99.90;;;;;;5074654;28;20024;-73
2023/03/09 08:36:16;;;;;;;36.70;22.45;;;4.40;99.90;;;;;;5056619;28;20414;-74
2023/03/09 08:38:43;;;;;;;28.92;19.00;;;4.50;99.90;;;;;;5074844;28;20031;-73
2023/03/09 08:41:09;;;;;;;34.25;21.65;;;4.50;99.90;;;;;;5056511;28;20071;-73
2023/03/09 08:43:35;;;;;;;35.40;22.42;;;4.60;99.90;;;;;;5056366;28;20056;-73
2023/03/09 08:46:00;;;;;;;30.13;20.02;;;4.60;99.90;;;;;;5055659;28;20024;-73
2023/03/09 08:48:26;;;;;;;35.65;23.20;;;4.60;99.90;;;;;;5074013;28;20028;-73
2023/03/09 08:50:52;;;;;;;34.67;22.77;;;4.70;99.90;;;;;;5056082;28;20052;-75
2023/03/09 08:53:18;;;;;;;37.38;23.42;;;4.60;99.90;;;;;;5073978;28;20037;-74
2023/03/09 08:55:45;;;;;;;38.28;24.05;;;4.60;99.90;;;;;;5073981;28;20031;-73
2023/03/09 08:58:11;;;;;;;32.95;21.10;;;4.60;99.90;;;;;;5055969;28;20097;-74
2023/03/09 09:00:37;;;;;;;33.30;22.60;;;4.60;99.90;;;;;;5073738;28;20469;-73
2023/03/09 09:03:03;;;;;;;29.98;20.75;;;4.80;99.90;;;;;;5073720;28;20099;-73
2023/03/09 09:05:29;;;;;;;33.78;22.30;;;4.90;99.90;;;;;;5073921;28;20462;-73
2023/03/09 09:07:54;;;;;;;33.15;22.13;;;5.00;99.90;;;;;;5038836;28;20032;-74
2023/03/09 09:10:20;;;;;;;34.97;22.40;;;4.90;99.90;;;;;;5055364;28;20033;-73
2023/03/09 09:12:45;;;;;;;36.25;22.60;;;4.90;99.90;;;;;;5073340;28;20036;-74
2023/03/09 09:15:13;;;;;;;35.90;23.55;;;5.00;99.90;;;;;;5038669;28;20089;-74
2023/03/09 09:17:40;;;;;;;34.97;22.20;;;5.00;99.90;;;;;;5055241;28;20110;-74
2023/03/09 09:20:07;;;;;;;32.90;21.35;;;4.90;99.90;;;;;;5073293;28;20060;-74
2023/03/09 09:22:33;;;;;;;36.42;22.83;;;4.70;99.90;;;;;;5072538;28;20036;-74
2023/03/09 09:24:59;;;;;;;34.28;22.52;;;4.60;99.90;;;;;;5055728;28;20028;-74
2023/03/09 09:27:25;;;;;;;35.03;23.17;;;4.60;99.90;;;;;;5073027;28;20043;-74
2023/03/09 09:29:52;;;;;;;38.70;24.50;;;4.60;99.90;;;;;;5073194;28;20082;-74
2023/03/09 09:32:19;;;;;;;42.10;24.13;;;4.40;99.90;;;;;;5038626;28;20028;-74
2023/03/09 09:34:45;;;;;;;37.63;23.48;;;4.40;99.90;;;;;;5062701;28;20465;-74
2023/03/09 09:37:11;;;;;;;40.55;24.30;;;4.40;99.90;;;;;;5071663;28;20079;-74
2023/03/09 09:39:38;;;;;;;39.28;24.63;;;4.50;99.90;;;;;;5073288;28;20327;-74
2023/03/09 09:42:19;;;;;;;38.95;23.73;;;4.50;99.90;;;;;;5072074;28;20039;-74
2023/03/09 09:44:49;;;;;;;36.50;23.33;;;4.40;99.90;;;;;;5071988;28;20141;-73
2023/03/09 09:47:21;;;;;;;38.78;23.77;;;4.50;99.90;;;;;;5072876;28;20365;-73
2023/03/09 09:49:50;;;;;;;39.17;24.70;;;4.60;99.90;;;;;;5073002;28;20047;-73
2023/03/09 09:52:37;;;;;;;37.47;23.67;;;4.70;99.90;;;;;;5072787;28;20032;-73
2023/03/09 09:55:15;;;;;;;38.05;23.60;;;4.80;99.90;;;;;;5071832;28;20376;-74
2023/03/09 09:57:53;;;;;;;37.47;23.08;;;4.80;99.90;;;;;;5072768;28;20475;-73
2023/03/09 10:00:21;;;;;;;39.20;23.92;;;4.80;99.90;;;;;;5072519;28;20028;-72
2023/03/09 10:03:02;;;;;;;35.53;22.30;;;4.80;99.90;;;;;;5072727;28;20024;-75
2023/03/09 10:05:43;;;;;;;42.72;26.50;;;4.80;99.90;;;;;;5071563;28;20028;-74
2023/03/09 10:08:19;;;;;;;37.85;24.02;;;4.90;99.90;;;;;;5073579;28;20072;-74
2023/03/09 10:10:45;;;;;;;34.00;21.08;;;5.00;99.90;;;;;;5073246;28;20134;-74
2023/03/09 10:13:18;;;;;;;40.63;23.58;;;5.20;99.90;;;;;;5072559;28;20477;-75
2023/03/09 10:15:45;;;;;;;33.85;21.38;;;5.30;99.90;;;;;;5072665;28;20040;-74
2023/03/09 10:18:15;;;;;;;35.03;21.08;;;5.30;99.90;;;;;;5072293;28;20040;-74
2023/03/09 10:21:00;;;;;;;36.75;22.30;;;5.30;99.90;;;;;;5071878;28;20082;-74
2023/03/09 10:23:32;;;;;;;32.30;20.83;;;5.50;99.90;;;;;;5072752;28;20033;-74
2023/03/09 10:26:50;;;;;;;32.30;20.50;;;5.60;99.90;;;;;;5073014;28;20036;-74
2023/03/09 10:29:26;;;;;;;38.55;23.80;;;5.80;99.90;;;;;;5020618;28;20095;-75
2023/03/09 10:32:03;;;;;;;40.80;23.80;;;5.80;99.90;;;;;;5076095;28;20025;-74
2023/03/09 10:34:34;;;;;;;40.08;24.15;;;5.60;99.90;;;;;;5076458;28;20072;-75
2023/03/09 10:37:20;;;;;;;40.60;24.77;;;5.40;99.90;;;;;;5059244;28;20040;-74
2023/03/09 10:39:46;;;;;;;37.53;23.10;;;5.30;99.90;;;;;;5076275;28;20036;-74
2023/03/09 10:42:35;;;;;;;41.13;25.02;;;5.20;99.90;;;;;;5076391;28;20073;-75
2023/03/09 10:45:27;;;;;;;31.65;19.55;;;5.20;99.90;;;;;;5076300;28;20021;-75
2023/03/09 10:48:04;;;;;;;34.25;20.98;;;5.30;99.90;;;;;;5076420;28;20098;-77
2023/03/09 10:50:40;;;;;;;35.30;21.95;;;5.50;99.90;;;;;;5058860;28;20020;-75
2023/03/09 10:53:28;;;;;;;34.38;21.40;;;5.60;99.90;;;;;;5076515;28;20028;-76
2023/03/09 10:56:00;;;;;;;34.03;21.25;;;5.70;99.90;;;;;;5058821;28;20025;-78
2023/03/09 10:58:26;;;;;;;34.00;20.98;;;5.90;99.90;;;;;;5076196;28;20048;-77
2023/03/09 11:00:55;;;;;;;33.67;20.77;;;6.00;99.90;;;;;;5076296;28;20037;-76
2023/03/09 11:03:22;;;;;;;31.77;21.20;;;6.10;99.90;;;;;;5076345;28;20056;-77
2023/03/09 11:05:48;;;;;;;35.50;21.95;;;6.10;99.90;;;;;;5075708;28;20021;-76
2023/03/09 11:08:27;;;;;;;34.28;22.80;;;6.20;99.90;;;;;;5041521;28;20387;-77
2023/03/09 11:11:05;;;;;;;27.85;18.63;;;6.20;99.90;;;;;;5057914;28;20029;-73
2023/03/09 11:13:31;;;;;;;31.80;21.35;;;6.20;99.90;;;;;;5075832;28;20024;-75
2023/03/09 11:16:13;;;;;;;36.05;22.48;;;6.20;99.90;;;;;;5057785;28;20029;-77
2023/03/09 11:18:39;;;;;;;35.10;21.80;;;6.30;99.90;;;;;;5058012;28;20036;-76
2023/03/09 11:21:08;;;;;;;37.00;23.00;;;6.30;99.90;;;;;;5075238;28;20492;-77
2023/03/09 11:23:47;;;;;;;34.13;22.45;;;6.10;99.90;;;;;;5057093;28;20035;-76
2023/03/09 11:26:27;;;;;;;37.47;23.38;;;6.10;99.90;;;;;;5075644;28;20040;-78
2023/03/09 11:29:01;;;;;;;35.13;23.17;;;6.10;99.90;;;;;;5075828;28;20021;-77
2023/03/09 11:31:36;;;;;;;36.45;22.20;;;6.10;99.90;;;;;;5075199;28;20029;-78
2023/03/09 11:34:02;;;;;;;33.38;21.80;;;6.20;99.90;;;;;;5074886;28;20044;-77
2023/03/09 11:36:42;;;;;;;34.70;21.42;;;6.10;99.90;;;;;;5075781;28;20033;-78
2023/03/09 11:39:18;;;;;;;44.80;23.65;;;6.10;99.90;;;;;;5074073;28;20040;-77
2023/03/09 11:41:47;;;;;;;36.92;23.23;;;6.20;99.90;;;;;;5057612;28;20457;-77
2023/03/09 11:44:24;;;;;;;36.25;22.98;;;6.20;99.90;;;;;;5075218;28;20111;-77
2023/03/09 11:46:53;;;;;;;33.28;21.40;;;6.20;99.90;;;;;;5075254;28;20028;-78
2023/03/09 11:49:25;;;;;;;35.05;22.83;;;6.30;99.90;;;;;;5074977;28;20086;-77
2023/03/09 11:51:52;;;;;;;37.25;21.80;;;6.30;99.90;;;;;;5075187;28;20036;-77
2023/03/09 11:54:42;;;;;;;32.85;21.20;;;6.40;99.90;;;;;;5057001;28;20108;-77
2023/03/09 11:57:14;;;;;;;33.20;21.13;;;6.40;99.90;;;;;;5074645;28;20441;-76
2023/03/09 11:59:59;;;;;;;35.05;21.88;;;6.50;99.90;;;;;;5074946;28;20079;-75
2023/03/09 12:02:46;;;;;;;34.53;20.83;;;6.60;99.90;;;;;;5075169;28;20111;-77
2023/03/09 12:05:14;;;;;;;31.67;20.40;;;6.60;99.90;;;;;;5075134;28;20024;-76
2023/03/09 12:08:02;;;;;;;30.42;18.95;;;6.60;99.90;;;;;;5074960;28;20025;-76
2023/03/09 12:10:34;;;;;;;33.38;20.48;;;6.70;99.90;;;;;;5074676;28;20028;-77
2023/03/09 12:13:09;;;;;;;35.13;20.95;;;6.70;99.90;;;;;;5075212;28;20473;-78
2023/03/09 12:15:47;;;;;;;34.80;21.67;;;6.80;99.90;;;;;;5074496;28;20020;-75
2023/03/09 12:18:26;;;;;;;28.77;18.80;;;6.70;99.90;;;;;;5074712;28;20032;-73
2023/03/09 12:20:56;;;;;;;32.92;20.10;;;6.40;99.90;;;;;;5074076;28;20554;-75
2023/03/09 12:23:34;;;;;;;34.83;21.52;;;6.50;99.90;;;;;;5056821;28;20021;-75
2023/03/09 12:26:12;;;;;;;33.75;19.70;;;6.30;99.90;;;;;;5074372;28;20029;-73
2023/03/09 12:28:39;;;;;;;33.08;20.25;;;6.20;99.90;;;;;;5074132;28;20033;-75
2023/03/09 12:31:05;;;;;;;30.33;17.95;;;6.20;99.90;;;;;;5074019;28;20424;-74
2023/03/09 12:33:57;;;;;;;31.00;18.70;;;6.30;99.90;;;;;;5056433;28;20028;-75
2023/03/09 12:36:27;;;;;;;32.10;19.52;;;6.30;99.90;;;;;;5009197;28;20512;-75
2023/03/09 12:39:24;;;;;;;29.55;18.55;;;6.40;99.90;;;;;;5055861;28;20035;-74
2023/03/09 12:42:14;;;;;;;32.63;19.80;;;6.50;99.90;;;;;;5074155;28;20016;-75
2023/03/09 12:44:51;;;;;;;35.22;21.77;;;6.50;99.90;;;;;;5073552;28;20025;-74
2023/03/09 12:47:23;;;;;;;53.40;22.85;;;6.40;99.90;;;;;;5073767;28;20094;-74
2023/03/09 12:49:53;;;;;;;52.70;22.15;;;6.30;99.90;;;;;;5073465;28;20043;-76
2023/03/09 12:52:32;;;;;;;47.95;21.50;;;6.20;99.90;;;;;;5073222;28;20437;-75